Time;durP1;ratioP1;P1;durP2;ratioP2;P2;SDS_P1;SDS_P2;PMS_P1;PMS_P2;Temp;Humidity;BMP_temperature;BMP_pressure;BME280_temperature;BME280_humidity;BME280_pressure;Samples;Min_cycle;Max_cycle;Signal;HPM_P1;HPM_P2
2021/07/21 00:01:11;;;;;;;8.77;5.40;;;;;;;16.89;76.67;101492.45;125460;1095;64284;-83
2021/07/21 00:03:43;;;;;;;9.83;4.40;;;;;;;16.89;76.79;101495.13;126295;1096;64173;-86
2021/07/21 00:06:14;;;;;;;6.70;3.87;;;;;;;16.88;76.93;101498.84;125500;1096;64300;-85
2021/07/21 00:08:41;;;;;;;8.40;4.83;;;;;;;16.86;76.98;101490.17;125386;1096;64381;-82
2021/07/21 00:14:22;;;;;;;6.83;3.93;;;;;;;16.83;77.39;101487.88;125363;1095;64278;-84
2021/07/21 00:20:06;;;;;;;7.13;4.30;;;;;;;16.82;77.25;101487.05;125272;1096;64285;-83
2021/07/21 00:22:55;;;;;;;9.87;5.27;;;;;;;16.81;77.71;101492.59;125417;1096;64213;-83
2021/07/21 00:25:31;;;;;;;6.43;3.63;;;;;;;16.77;78.51;101492.16;125562;1096;64279;-82
2021/07/21 00:28:09;;;;;;;;;;;;;;;;;;;;;
2021/07/21 00:30:46;;;;;;;8.80;4.40;;;;;;;16.74;78.14;101491.71;125278;1096;64285;-83
2021/07/21 00:33:16;;;;;;;7.57;4.10;;;;;;;16.71;79.20;101491.08;125250;1096;64380;-84
2021/07/21 00:35:46;;;;;;;8.27;4.73;;;;;;;16.71;78.47;101484.89;125526;1096;64297;-84
2021/07/21 00:38:16;;;;;;;8.53;4.83;;;;;;;16.70;78.55;101489.44;125539;1096;64386;-83
2021/07/21 00:40:50;;;;;;;10.10;5.83;;;;;;;16.71;78.69;101485.72;125555;1096;64268;-83
2021/07/21 00:43:22;;;;;;;7.88;4.90;;;;;;;16.72;78.77;101481.18;125555;1096;64232;-84
2021/07/21 00:45:57;;;;;;;8.23;4.93;;;;;;;16.73;78.82;101488.21;125225;1096;64227;-83
2021/07/21 00:48:34;;;;;;;;;;;;;;;;;;;;;
2021/07/21 00:51:14;;;;;;;10.03;5.87;;;;;;;16.69;79.18;101477.05;125020;1096;64307;-83
2021/07/21 00:53:47;;;;;;;7.87;4.50;;;;;;;16.69;78.76;101482.41;125290;1096;64284;-83
2021/07/21 00:56:15;;;;;;;8.37;4.70;;;;;;;16.68;78.97;101478.09;125236;1095;64729;-84
2021/07/21 00:58:48;;;;;;;8.50;5.10;;;;;;;16.67;78.87;101481.77;124820;1096;64342;-83
2021/07/21 01:01:25;;;;;;;9.67;4.50;;;;;;;16.68;78.92;101478.09;125249;1096;64275;-81
2021/07/21 01:04:00;;;;;;;8.07;4.60;;;;;;;16.66;79.36;101477.45;125149;1096;64304;-82
2021/07/21 01:06:28;;;;;;;8.60;5.27;;;;;;;16.64;79.25;101474.14;125181;1096;64394;-84
2021/07/21 01:08:56;;;;;;;8.50;5.20;;;;;;;16.63;79.40;101477.01;125249;1096;64230;-83
2021/07/21 01:11:51;;;;;;;7.20;4.47;;;;;;;16.61;79.70;101479.88;125265;1095;64336;-84
2021/07/21 01:14:22;;;;;;;9.20;5.00;;;;;;;16.58;79.93;101490.99;125249;1096;64291;-84
2021/07/21 01:17:10;;;;;;;8.53;4.80;;;;;;;16.58;79.69;101485.63;125383;1095;64286;-83
2021/07/21 01:20:15;;;;;;;7.73;3.90;;;;;;;16.58;79.91;101490.99;125415;1096;64181;-84
2021/07/21 01:23:02;;;;;;;7.60;4.33;;;;;;;16.56;79.86;101486.86;125337;1095;64279;-84
2021/07/21 01:26:16;;;;;;;8.27;5.00;;;;;;;16.55;79.91;101488.69;125276;1096;64288;-87
2021/07/21 01:28:53;;;;;;;10.85;5.65;;;;;;;16.51;80.26;101492.77;125168;1096;64249;-84
2021/07/21 01:31:50;;;;;;;8.23;4.77;;;;;;;16.50;80.07;101489.27;124999;1094;64304;-84
2021/07/21 01:34:46;;;;;;;7.30;4.23;;;;;;;16.50;80.36;101493.81;125448;1096;64317;-84
2021/07/21 01:37:18;;;;;;;6.20;3.70;;;;;;;16.49;80.38;101487.63;125583;1095;64197;-84
2021/07/21 01:40:05;;;;;;;10.10;4.67;;;;;;;16.49;80.33;101486.78;125588;1096;64348;-84
2021/07/21 01:42:41;;;;;;;10.10;5.80;;;;;;;16.48;80.57;101490.50;125674;1096;64362;-84
2021/07/21 01:45:50;;;;;;;;;;;;;;;;;;;;;
2021/07/21 01:48:23;;;;;;;10.13;5.40;;;;;;;16.47;80.82;101494.22;125595;1096;64278;-83
2021/07/21 01:50:58;;;;;;;10.65;5.55;;;;;;;16.44;80.96;101491.91;127693;1095;61949;-84
2021/07/21 01:53:30;;;;;;;7.97;4.23;;;;;;;16.43;81.14;101498.30;127113;1096;62678;-82
2021/07/21 01:55:58;;;;;;;9.47;4.90;;;;;;;16.41;81.15;101495.81;126481;1095;64304;-82
2021/07/21 01:58:29;;;;;;;10.20;5.13;;;;;;;16.42;81.24;101491.27;125288;1095;64259;-82
2021/07/21 02:00:57;;;;;;;9.30;3.80;;;;;;;16.40;81.26;101486.10;125305;1096;64459;-83
2021/07/21 02:03:26;;;;;;;8.20;4.90;;;;;;;16.41;81.52;101492.31;125671;1096;64336;-82
2021/07/21 02:06:08;;;;;;;9.27;5.23;;;;;;;16.40;81.32;101485.28;125302;1096;64295;-84
2021/07/21 02:08:42;;;;;;;8.23;5.03;;;;;;;16.40;81.41;101487.96;125206;1096;64275;-84
2021/07/21 02:11:12;;;;;;;9.97;5.53;;;;;;;16.39;81.33;101486.32;125300;1096;64301;-84
2021/07/21 02:13:39;;;;;;;9.43;5.43;;;;;;;16.39;81.05;101481.78;125004;1096;64261;-84
2021/07/21 02:16:11;;;;;;;11.47;6.20;;;;;;;16.40;81.15;101487.96;125295;1096;64294;-81
2021/07/21 02:18:51;;;;;;;;;;;;;;;;;;;;;
2021/07/21 02:21:45;;;;;;;13.23;6.00;;;;;;;16.42;81.11;101480.56;125767;1096;64281;-83
2021/07/21 02:24:26;;;;;;;9.57;5.10;;;;;;;16.40;81.59;101480.75;125441;1096;64283;-85
2021/07/21 02:27:08;;;;;;;11.67;5.57;;;;;;;16.43;81.47;101482.23;125319;1095;64293;-84
2021/07/21 02:29:35;;;;;;;10.37;5.80;;;;;;;16.45;81.56;101486.37;125310;1096;64192;-83
2021/07/21 02:32:12;;;;;;;8.93;4.93;;;;;;;16.45;81.52;101478.33;125511;1095;64419;-84
2021/07/21 02:34:44;;;;;;;8.83;5.70;;;;;;;16.44;82.13;101489.23;125524;1095;64736;-82
2021/07/21 02:37:17;;;;;;;9.20;4.87;;;;;;;16.40;82.33;101480.75;125282;1095;64269;-82
2021/07/21 02:40:05;;;;;;;11.00;5.70;;;;;;;16.40;81.67;101482.60;125286;1096;64279;-83
2021/07/21 02:42:40;;;;;;;9.90;5.53;;;;;;;16.38;81.73;101474.76;125113;1096;64370;-83
2021/07/21 02:45:31;;;;;;;9.20;4.60;;;;;;;16.40;82.18;101477.25;125054;1095;64275;-83
2021/07/21 02:47:58;;;;;;;9.27;5.50;;;;;;;16.39;81.86;101478.28;125322;1095;64300;-81
2021/07/21 02:50:39;;;;;;;14.90;6.13;;;;;;;16.40;81.50;101482.60;125448;1095;64623;-82
2021/07/21 02:53:31;;;;;;;9.17;5.53;;;;;;;16.42;81.91;101475.20;125823;1095;64278;-82
2021/07/21 02:56:28;;;;;;;;;;;;;;;;;;;;;
2021/07/21 02:59:20;;;;;;;10.40;5.30;;;;;;;16.41;81.71;101484.27;125390;1096;64224;-82
2021/07/21 03:01:49;;;;;;;9.27;4.63;;;;;;;16.41;81.94;101484.27;125500;1095;64298;-82
2021/07/21 03:04:23;;;;;;;8.37;4.57;;;;;;;16.41;81.88;101489.63;125790;1096;64317;-83
2021/07/21 03:06:56;;;;;;;15.20;5.30;;;;;;;16.41;81.74;101490.45;125655;1095;64296;-83
2021/07/21 03:09:34;;;;;;;10.53;5.97;;;;;;;16.42;81.84;101486.73;125344;1095;64247;-82
2021/07/21 03:12:04;;;;;;;9.80;5.77;;;;;;;16.42;81.72;101493.95;125669;1096;64322;-83
2021/07/21 03:14:36;;;;;;;10.73;5.47;;;;;;;16.44;81.71;101489.23;125462;1096;64622;-83
2021/07/21 03:17:13;;;;;;;12.97;5.50;;;;;;;16.45;81.83;101491.72;125530;1095;64282;-83
2021/07/21 03:19:48;;;;;;;12.10;6.97;;;;;;;16.46;81.83;101492.55;125491;1095;64665;-84
2021/07/21 03:22:22;;;;;;;10.20;5.70;;;;;;;16.45;81.94;101486.37;125783;1096;64284;-82
2021/07/21 03:24:51;;;;;;;9.87;5.77;;;;;;;16.44;81.99;101494.58;125411;1096;64240;-83
2021/07/21 03:27:22;;;;;;;8.80;5.60;;;;;;;16.42;81.93;101485.91;125297;1096;64295;-83
2021/07/21 03:29:54;;;;;;;11.97;6.60;;;;;;;16.40;82.15;101488.78;125282;1095;64205;-83
2021/07/21 03:32:28;;;;;;;11.10;5.87;;;;;;;16.41;82.18;101489.63;125471;1095;64175;-83
2021/07/21 03:35:13;;;;;;;;;;;;;;;;;;;;;
2021/07/21 03:38:06;;;;;;;11.97;6.20;;;;;;;16.47;82.33;101488.86;125147;1096;64415;-82
2021/07/21 03:40:49;;;;;;;13.07;6.07;;;;;;;16.48;82.13;101488.64;125133;1095;64332;-84
2021/07/21 03:44:11;;;;;;;8.65;4.95;;;;;;;16.47;82.48;101503.07;125188;1095;64297;-84
2021/07/21 03:46:44;;;;;;;10.13;6.00;;;;;;;16.43;82.33;101504.48;125289;1095;64248;-82
2021/07/21 03:49:22;;;;;;;8.50;5.40;;;;;;;16.40;82.44;101496.81;125214;1096;64276;-82
2021/07/21 03:52:00;;;;;;;8.30;5.57;;;;;;;16.40;82.33;101504.03;125094;1095;64327;-81
2021/07/21 03:55:08;;;;;;;9.97;5.27;;;;;;;16.36;82.88;101502.75;125306;1094;65074;-82
2021/07/21 03:58:05;;;;;;;12.67;6.47;;;;;;;16.37;82.79;101510.60;124833;1096;64565;-84
2021/07/21 04:00:42;;;;;;;10.20;6.40;;;;;;;16.37;82.93;101515.95;124880;1096;64856;-84
2021/07/21 04:03:30;;;;;;;13.90;5.45;;;;;;;16.39;82.97;101513.09;125007;1095;64808;-84
2021/07/21 04:06:02;;;;;;;13.60;5.50;;;;;;;16.40;83.10;101525.45;124885;1096;64372;-86
2021/07/21 04:08:31;;;;;;;12.90;5.23;;;;;;;16.41;82.99;101532.48;124880;1096;64211;-83
2021/07/21 04:11:04;;;;;;;10.67;5.37;;;;;;;16.39;82.92;101521.95;126678;1096;64288;-82
2021/07/21 04:13:51;;;;;;;9.70;4.03;;;;;;;16.40;82.99;101515.56;126931;1095;63011;-83
2021/07/21 04:16:51;;;;;;;10.10;5.50;;;;;;;16.42;82.89;101523.41;126972;1097;64305;-82
2021/07/21 04:19:22;;;;;;;10.33;6.07;;;;;;;16.43;82.73;101519.72;126458;1095;64203;-82
2021/07/21 04:21:52;;;;;;;16.13;6.80;;;;;;;16.45;82.40;101520.36;126581;1095;64242;-81
2021/07/21 04:24:38;;;;;;;15.23;5.27;;;;;;;16.47;82.61;101527.17;126640;1096;64365;-82
2021/07/21 04:27:49;;;;;;;10.20;4.70;;;;;;;16.46;82.57;101527.36;126066;1096;64424;-81
2021/07/21 04:30:32;;;;;;;9.87;4.63;;;;;;;16.46;82.58;101524.68;126634;1095;64261;-82
2021/07/21 04:33:30;;;;;;;;;;;;;;;;;;;;;
2021/07/21 04:36:31;;;;;;;11.23;4.93;;;;;;;16.50;82.52;101531.31;125254;1096;64243;-83
2021/07/21 04:39:09;;;;;;;18.07;6.47;;;;;;;16.52;82.43;101539.98;125101;1095;64307;-82
2021/07/21 04:41:39;;;;;;;14.83;7.00;;;;;;;16.56;82.27;101543.93;125037;1095;64243;-83
2021/07/21 04:44:31;;;;;;;10.70;6.40;;;;;;;16.60;82.49;101537.16;125058;1096;64287;-84
2021/07/21 04:47:04;;;;;;;13.30;7.20;;;;;;;16.65;82.29;101541.94;125128;1095;64295;-83
2021/07/21 04:49:45;;;;;;;13.33;7.27;;;;;;;16.65;82.08;101545.44;125197;1096;64278;-82
2021/07/21 04:52:40;;;;;;;13.37;7.30;;;;;;;16.65;81.94;101545.44;125176;1096;64297;-85
2021/07/21 04:55:12;;;;;;;15.80;7.87;;;;;;;16.68;82.08;101549.57;125158;1095;64285;-82
2021/07/21 04:57:48;;;;;;;15.77;7.07;;;;;;;16.70;82.09;101547.53;125205;1095;64326;-82
2021/07/21 05:00:21;;;;;;;13.27;6.77;;;;;;;16.71;82.07;101563.41;124992;1096;64262;-82
2021/07/21 05:03:28;;;;;;;;;;;;;;;;;;;;;
2021/07/21 05:06:12;;;;;;;12.90;6.23;;;;;;;16.77;82.21;101552.96;124890;1095;64304;-84
2021/07/21 05:08:42;;;;;;;9.80;5.60;;;;;;;16.79;82.06;101567.81;125111;1095;64301;-82
2021/07/21 05:11:21;;;;;;;8.97;5.90;;;;;;;16.79;81.90;101572.32;125019;1096;64297;-84
2021/07/21 05:13:48;;;;;;;10.10;5.80;;;;;;;16.82;81.98;101571.98;124919;1095;64359;-78
2021/07/21 05:16:34;;;;;;;10.83;5.43;;;;;;;16.84;81.93;101567.25;124773;1096;64304;-82
2021/07/21 05:19:09;;;;;;;10.23;5.33;;;;;;;16.88;81.60;101576.56;125375;1096;64367;-83
2021/07/21 05:21:47;;;;;;;14.43;5.77;;;;;;;16.89;81.83;101579.05;125673;1096;64205;-83
2021/07/21 05:24:25;;;;;;;13.03;6.30;;;;;;;16.93;81.99;101576.80;125137;1094;64294;-80
2021/07/21 05:27:02;;;;;;;11.93;6.77;;;;;;;16.98;81.73;101582.41;124795;1096;64285;-81
2021/07/21 05:29:32;;;;;;;11.97;6.87;;;;;;;16.99;81.79;101592.09;125006;1096;64294;-82
2021/07/21 05:32:05;;;;;;;11.07;6.00;;;;;;;17.04;81.80;101589.67;125497;1096;64179;-82
2021/07/21 05:34:52;;;;;;;11.60;5.77;;;;;;;17.06;81.84;101594.82;125314;1096;64309;-82
2021/07/21 05:37:51;;;;;;;13.43;6.97;;;;;;;17.05;81.55;101587.81;124956;1095;64208;-80
2021/07/21 05:40:47;;;;;;;8.95;4.50;;;;;;;17.03;81.75;101596.05;124831;1095;64528;-80
2021/07/21 05:43:41;;;;;;;10.50;5.15;;;;;;;17.03;81.61;101590.69;124549;1096;64738;-80
2021/07/21 05:49:25;;;;;;;10.90;4.80;;;;;;;16.99;82.03;101592.09;124939;1096;64267;-79
2021/07/21 05:52:13;;;;;;;11.83;5.73;;;;;;;17.01;81.89;101582.01;125133;1096;64403;-80
2021/07/21 05:54:46;;;;;;;10.70;6.45;;;;;;;17.06;81.51;101592.96;125103;1095;64336;-83
2021/07/21 05:57:44;;;;;;;13.10;6.23;;;;;;;17.10;81.39;101591.55;125236;1095;64378;-80
2021/07/21 06:00:37;;;;;;;12.40;5.50;;;;;;;17.16;81.62;101591.80;125372;1096;64400;-79
2021/07/21 06:03:04;;;;;;;12.60;6.43;;;;;;;17.19;81.36;101592.25;124907;1095;64339;-80
2021/07/21 06:05:55;;;;;;;12.00;6.30;;;;;;;17.22;81.31;101601.75;125299;1095;64205;-80
2021/07/21 06:08:38;;;;;;;16.77;7.00;;;;;;;17.25;80.95;101595.98;125263;1095;64438;-80
2021/07/21 06:11:15;;;;;;;9.90;5.87;;;;;;;17.27;80.92;101608.16;125082;1096;64240;-78
2021/07/21 06:14:06;;;;;;;12.13;6.50;;;;;;;17.30;80.88;101606.95;125042;1096;64284;-79
2021/07/21 06:16:36;;;;;;;12.75;7.10;;;;;;;17.33;80.72;101609.23;124916;1095;64243;-80
2021/07/21 06:19:04;;;;;;;15.97;7.77;;;;;;;17.34;80.65;101616.27;124969;1096;64403;-80
2021/07/21 06:21:32;;;;;;;11.77;7.43;;;;;;;17.39;80.83;101610.30;125123;1095;64362;-79
2021/07/21 06:23:59;;;;;;;12.85;7.60;;;;;;;17.39;80.23;101608.45;124960;1095;64301;-80
2021/07/21 06:26:27;;;;;;;16.73;9.20;;;;;;;17.46;80.20;101601.25;125112;1095;64282;-79
2021/07/21 06:29:43;;;;;;;13.27;7.83;;;;;;;17.54;80.14;101611.00;124984;1095;64277;-79
2021/07/21 06:33:02;;;;;;;;;;;;;;;;;;;;;
2021/07/21 06:35:52;;;;;;;11.23;6.03;;;;;;;17.72;79.37;101615.82;125045;1096;64240;-79
2021/07/21 06:38:50;;;;;;;11.03;5.63;;;;;;;17.78;78.83;101616.88;125085;1095;64619;-78
2021/07/21 06:42:19;;;;;;;10.20;6.15;;;;;;;17.83;78.76;101617.98;125270;1095;64292;-80
2021/07/21 06:45:29;;;;;;;15.43;7.13;;;;;;;17.88;78.32;101620.88;125186;1095;64304;-79
2021/07/21 06:48:07;;;;;;;;;;;;;;;;;;;;;
2021/07/21 06:50:55;;;;;;;13.53;6.63;;;;;;;18.00;77.86;101628.34;125077;1096;64435;-77
2021/07/21 06:53:32;;;;;;;10.33;6.00;;;;;;;18.05;77.74;101626.72;124889;1095;64316;-78
2021/07/21 06:57:01;;;;;;;8.67;5.07;;;;;;;18.12;77.09;101629.42;124837;1095;64310;-80
2021/07/21 06:59:54;;;;;;;14.77;6.70;;;;;;;18.22;76.86;101629.05;124765;1095;64289;-77
2021/07/21 07:02:33;;;;;;;12.63;7.13;;;;;;;18.30;76.63;101634.23;124658;1096;64335;-81
2021/07/21 07:05:29;;;;;;;13.70;6.60;;;;;;;18.40;75.92;101639.20;124798;1096;64432;-79
2021/07/21 07:08:26;;;;;;;7.57;3.90;;;;;;;18.43;75.47;101633.44;124950;1095;64279;-78
2021/07/21 07:10:53;;;;;;;14.70;7.97;;;;;;;18.51;75.51;101644.00;125014;1096;64378;-79
2021/07/21 07:13:20;;;;;;;11.80;7.00;;;;;;;18.56;75.12;101643.38;124520;1096;64378;-78
2021/07/21 07:16:08;;;;;;;10.87;6.33;;;;;;;18.58;74.82;101639.45;124827;1096;64298;-79
2021/07/21 07:18:36;;;;;;;10.95;6.55;;;;;;;18.64;74.84;101635.95;124765;1096;64319;-78
2021/07/21 07:21:06;;;;;;;13.57;7.93;;;;;;;18.71;74.64;101635.95;124738;1095;64300;-78
2021/07/21 07:24:16;;;;;;;9.73;6.57;;;;;;;18.78;74.78;101635.95;124714;1096;64312;-79
2021/07/21 07:27:04;;;;;;;10.37;6.10;;;;;;;18.94;74.55;101635.57;124915;1095;64320;-79
2021/07/21 07:29:36;;;;;;;11.93;5.77;;;;;;;19.06;73.22;101633.91;124765;1095;64214;-80
2021/07/21 07:32:25;;;;;;;11.30;6.33;;;;;;;19.14;72.81;101641.73;125069;1095;64381;-79
2021/07/21 07:35:15;;;;;;;10.40;6.13;;;;;;;19.24;72.06;101637.81;124959;1096;64380;-80
2021/07/21 07:37:52;;;;;;;9.27;6.37;;;;;;;19.32;71.50;101638.42;124877;1095;64287;-77
2021/07/21 07:40:44;;;;;;;13.00;6.65;;;;;;;19.43;72.35;101634.25;124981;1096;64169;-79
2021/07/21 07:44:02;;;;;;;22.17;14.00;;;;;;;19.55;70.96;101637.95;124913;1096;64358;-79
2021/07/21 07:47:01;;;;;;;15.47;8.40;;;;;;;19.61;70.40;101640.83;124452;1095;64740;-80
2021/07/21 07:49:39;;;;;;;9.83;6.00;;;;;;;19.64;70.64;101643.11;124580;1096;64320;-80
2021/07/21 07:52:47;;;;;;;12.57;7.43;;;;;;;19.69;70.09;101643.28;124935;1095;65473;-80
2021/07/21 07:59:14;;;;;;;14.33;7.47;;;;;;;19.98;69.13;101646.50;125381;1096;64179;-83
2021/07/21 08:01:58;;;;;;;16.40;7.00;;;;;;;19.92;69.14;101637.44;124777;1095;64390;-80
2021/07/21 08:04:25;;;;;;;14.37;7.50;;;;;;;20.00;69.20;101645.27;125448;1095;64281;-80
2021/07/21 08:06:58;;;;;;;14.83;8.23;;;;;;;20.08;68.67;101641.48;125344;1095;64276;-82
2021/07/21 08:09:55;;;;;;;14.63;7.80;;;;;;;20.12;68.59;101642.72;125395;1096;64278;-80
2021/07/21 08:12:26;;;;;;;12.10;6.90;;;;;;;20.09;68.13;101637.77;125301;1096;64282;-81
2021/07/21 08:14:56;;;;;;;10.13;6.00;;;;;;;20.12;68.04;101648.92;125524;1096;64387;-83
2021/07/21 08:17:23;;;;;;;12.13;6.50;;;;;;;20.18;67.89;101652.63;125589;1096;64400;-83
2021/07/21 08:19:58;;;;;;;13.17;6.27;;;;;;;20.20;67.56;101650.55;125476;1096;64345;-81
2021/07/21 08:22:51;;;;;;;12.97;5.70;;;;;;;20.20;67.34;101652.42;125320;1095;64246;-82
2021/07/21 08:25:23;;;;;;;10.03;5.97;;;;;;;20.21;66.81;101651.37;125106;1096;64361;-80
2021/07/21 08:27:57;;;;;;;11.70;6.63;;;;;;;20.25;66.90;101639.12;125700;1096;64334;-80
2021/07/21 08:30:27;;;;;;;11.05;5.20;;;;;;;20.23;65.45;101644.75;125368;1095;64245;-81
2021/07/21 08:32:57;;;;;;;13.13;7.43;;;;;;;20.27;66.49;101645.94;125568;1094;64282;-80
2021/07/21 08:35:29;;;;;;;13.50;7.60;;;;;;;20.36;66.67;101652.74;126895;1097;64172;-80
2021/07/21 08:37:58;;;;;;;11.03;6.63;;;;;;;20.35;65.90;101647.56;126449;1095;64213;-80
2021/07/21 08:40:33;;;;;;;11.10;6.93;;;;;;;20.37;65.47;101648.99;125564;1096;64923;-80
2021/07/21 08:43:21;;;;;;;9.87;5.63;;;;;;;20.41;65.08;101645.88;125702;1096;64285;-81
2021/07/21 08:45:53;;;;;;;8.25;6.05;;;;;;;20.45;65.17;101652.48;125385;1095;64236;-84
2021/07/21 08:48:26;;;;;;;10.33;7.17;;;;;;;20.46;64.57;101646.04;125473;1096;64285;-84
2021/07/21 08:50:54;;;;;;;9.03;5.87;;;;;;;20.45;65.30;101642.53;125190;1097;64261;-80
2021/07/21 08:53:24;;;;;;;8.30;4.73;;;;;;;20.42;65.77;101642.13;125296;1095;64268;-81
2021/07/21 08:55:56;;;;;;;10.90;6.17;;;;;;;20.36;65.17;101641.97;125531;1096;64281;-81
2021/07/21 08:58:27;;;;;;;11.50;7.63;;;;;;;20.34;65.53;101643.23;125522;1095;64368;-80
2021/07/21 09:01:00;;;;;;;9.80;6.50;;;;;;;20.34;66.05;101652.13;125544;1096;64198;-80
2021/07/21 09:03:31;;;;;;;7.80;5.20;;;;;;;20.40;65.25;101647.76;125836;1096;64197;-80
2021/07/21 09:06:02;;;;;;;7.67;5.83;;;;;;;20.43;64.78;101652.70;125643;1095;64368;-80
2021/07/21 09:08:33;;;;;;;9.07;5.83;;;;;;;20.48;64.91;101652.05;125467;1095;64424;-80
2021/07/21 09:11:03;;;;;;;11.47;7.33;;;;;;;20.54;64.63;101648.48;125870;1095;64795;-80
2021/07/21 09:13:34;;;;;;;11.50;6.57;;;;;;;20.62;64.59;101653.64;125734;1096;64304;-81
2021/07/21 09:16:05;;;;;;;7.77;4.97;;;;;;;20.68;63.60;101651.95;126207;1094;62185;-82
2021/07/21 09:18:52;;;;;;;10.17;4.70;;;;;;;20.96;62.82;101651.52;125853;1096;64285;-81
2021/07/21 09:21:22;;;;;;;6.77;5.23;;;;;;;21.31;62.72;101661.77;125522;1096;65426;-81
2021/07/21 09:23:52;;;;;;;10.97;6.63;;;;;;;21.39;60.82;101648.80;125442;1096;64271;-81
2021/07/21 09:26:22;;;;;;;7.53;5.00;;;;;;;21.45;61.08;101643.61;125880;1096;64294;-81
2021/07/21 09:28:52;;;;;;;8.20;5.83;;;;;;;21.49;60.46;101639.41;125865;1096;64256;-81
2021/07/21 09:31:53;;;;;;;9.33;5.23;;;;;;;21.50;58.77;101644.56;125282;1096;64458;-79
2021/07/21 09:34:23;;;;;;;12.63;5.73;;;;;;;21.58;59.23;101640.75;125333;1096;64211;-82
2021/07/21 09:37:14;;;;;;;7.30;4.60;;;;;;;21.67;58.62;101646.67;125098;1096;64661;-80
2021/07/21 09:39:44;;;;;;;8.87;5.10;;;;;;;21.57;59.63;101637.23;125099;1096;64279;-80
2021/07/21 09:42:13;;;;;;;9.97;5.33;;;;;;;21.44;59.09;101645.45;125679;1095;64219;-81
2021/07/21 09:44:43;;;;;;;9.43;5.17;;;;;;;21.29;59.18;101639.57;125304;1096;64441;-82
2021/07/21 09:47:20;;;;;;;7.00;4.73;;;;;;;21.05;58.71;101636.69;125661;1096;64230;-82
2021/07/21 09:49:49;;;;;;;8.70;4.90;;;;;;;20.77;59.31;101640.66;125301;1096;64297;-81
2021/07/21 09:52:26;;;;;;;9.93;6.30;;;;;;;20.59;60.52;101643.28;125878;1095;64232;-80
2021/07/21 09:55:16;;;;;;;14.87;5.07;;;;;;;20.41;61.69;101637.80;125455;1095;64289;-84
2021/07/21 09:58:05;;;;;;;7.95;4.65;;;;;;;20.24;62.43;101646.38;125329;1096;64342;-80
2021/07/21 10:00:36;;;;;;;7.17;3.77;;;;;;;20.02;60.69;101650.42;125506;1096;64275;-80
2021/07/21 10:03:11;;;;;;;12.10;5.17;;;;;;;19.85;61.51;101658.16;125377;1095;64201;-80
2021/07/21 10:06:02;;;;;;;9.30;4.27;;;;;;;19.67;62.48;101648.05;125293;1095;63704;-82
2021/07/21 10:08:41;;;;;;;12.83;4.40;;;;;;;19.53;62.15;101658.05;125238;1095;64183;-80
2021/07/21 10:11:26;;;;;;;9.05;4.00;;;;;;;19.45;62.89;101651.02;125385;1094;64438;-77
2021/07/21 10:13:55;;;;;;;;;;;;;;;19.37;63.51;101661.18;125433;1096;64352;-79
2021/07/21 10:16:40;;;;;;;7.80;4.00;;;;;;;19.28;63.39;101661.39;124852;1096;64282;-77
2021/07/21 10:19:12;;;;;;;;;;;;;;;19.21;64.45;101657.05;124856;1096;64204;-77
2021/07/21 10:21:43;;;;;;;10.97;4.97;;;;;;;19.13;65.01;101656.23;124727;1096;64278;-77
2021/07/21 10:24:11;;;;;;;9.45;5.35;;;;;;;19.08;65.29;101652.51;124760;1096;64359;-78
2021/07/21 10:26:40;;;;;;;17.20;5.47;;;;;;;19.04;65.85;101660.19;124681;1096;64281;-79
2021/07/21 10:29:08;;;;;;;14.23;5.10;;;;;;;19.04;66.09;101654.81;125182;1096;64169;-79
2021/07/21 10:31:37;;;;;;;11.93;4.63;;;;;;;19.05;66.97;101659.14;124890;1096;64301;-77
2021/07/21 10:34:05;;;;;;;10.93;4.80;;;;;;;19.00;67.31;101656.25;124334;1096;64387;-79
2021/07/21 10:36:36;;;;;;;15.67;4.90;;;;;;;18.98;67.31;101652.95;124795;1096;64437;-78
2021/07/21 10:39:14;;;;;;;9.80;4.53;;;;;;;18.97;67.02;101651.27;124767;1095;64307;-78
2021/07/21 10:41:43;;;;;;;10.65;4.20;;;;;;;18.97;66.65;101645.89;124758;1096;64307;-78
2021/07/21 10:44:13;;;;;;;10.43;4.37;;;;;;;19.03;65.94;101650.45;125248;1096;64734;-79
2021/07/21 10:46:46;;;;;;;9.73;4.67;;;;;;;19.07;66.16;101651.69;125967;1096;64622;-78
2021/07/21 10:49:40;;;;;;;7.03;4.37;;;;;;;19.14;66.20;101651.68;124956;1096;64454;-78
2021/07/21 10:52:27;;;;;;;7.38;4.25;;;;;;;19.24;66.16;101645.89;124816;1096;64312;-79
2021/07/21 10:55:14;;;;;;;7.73;4.50;;;;;;;19.36;65.46;101638.84;124739;1096;64297;-74
2021/07/21 11:00:42;;;;;;;8.10;5.30;;;;;;;19.68;64.65;101638.95;124756;1096;64282;-79
2021/07/21 11:03:22;;;;;;;8.70;5.23;;;;;;;19.87;65.12;101645.31;124781;1096;64285;-78
2021/07/21 11:06:05;;;;;;;11.07;4.30;;;;;;;20.02;63.89;101647.73;124820;1096;64282;-77
2021/07/21 11:09:14;;;;;;;6.77;4.40;;;;;;;20.16;63.77;101643.94;125451;1096;64304;-79
2021/07/21 11:11:43;;;;;;;8.20;4.70;;;;;;;20.30;62.83;101636.62;124851;1096;64298;-79
2021/07/21 11:14:17;;;;;;;7.73;5.13;;;;;;;20.45;63.35;101639.02;124969;1095;64230;-80
2021/07/21 11:17:02;;;;;;;8.95;4.93;;;;;;;20.51;62.28;101640.84;125481;1096;65055;-79
2021/07/21 11:19:38;;;;;;;9.20;4.77;;;;;;;20.63;60.84;101639.10;125193;1095;64255;-79
2021/07/21 11:22:25;;;;;;;7.90;4.43;;;;;;;20.74;61.62;101642.96;125582;1095;64307;-80
2021/07/21 11:25:24;;;;;;;10.87;5.80;;;;;;;20.83;60.78;101644.36;124999;1096;64281;-81
2021/07/21 11:28:21;;;;;;;6.77;4.53;;;;;;;20.92;60.75;101647.60;125328;1096;64253;-80
2021/07/21 11:31:02;;;;;;;12.70;6.07;;;;;;;21.07;60.38;101644.56;125136;1096;64336;-79
2021/07/21 11:34:11;;;;;;;7.27;4.50;;;;;;;21.18;60.16;101641.13;124940;1095;63684;-81
2021/07/21 11:37:12;;;;;;;11.33;6.03;;;;;;;21.36;59.64;101637.64;124953;1096;64289;-82
2021/07/21 11:40:08;;;;;;;8.43;4.57;;;;;;;21.45;58.08;101636.33;124913;1096;63551;-85
2021/07/21 11:42:58;;;;;;;10.87;6.33;;;;;;;21.61;58.69;101634.06;124913;1095;64239;-83
2021/07/21 11:45:40;;;;;;;10.53;6.20;;;;;;;21.74;57.59;101640.15;124867;1096;64300;-79
2021/07/21 11:48:18;;;;;;;9.43;6.03;;;;;;;21.80;57.41;101633.00;124960;1096;64323;-84
2021/07/21 11:50:45;;;;;;;10.33;6.50;;;;;;;21.93;56.69;101629.30;125055;1096;64163;-82
2021/07/21 11:53:15;;;;;;;8.73;5.37;;;;;;;21.98;55.89;101632.98;125173;1095;64301;-81
2021/07/21 11:55:48;;;;;;;10.03;6.53;;;;;;;22.13;56.16;101631.75;125173;1096;64284;-78
2021/07/21 11:58:17;;;;;;;10.27;6.33;;;;;;;22.28;54.86;101628.66;124924;1095;64310;-80
2021/07/21 12:00:50;;;;;;;8.03;4.70;;;;;;;22.43;53.90;101625.53;125193;1096;64304;-81
2021/07/21 12:03:24;;;;;;;11.03;6.73;;;;;;;22.65;53.29;101629.32;125232;1096;64291;-82
2021/07/21 12:06:05;;;;;;;11.53;6.20;;;;;;;22.72;52.76;101624.65;125172;1096;64340;-83
2021/07/21 12:08:35;;;;;;;10.33;6.33;;;;;;;22.95;52.18;101628.41;125056;1096;64394;-84
2021/07/21 12:11:13;;;;;;;10.27;6.03;;;;;;;23.05;51.76;101630.58;125093;1096;64271;-82
2021/07/21 12:13:43;;;;;;;8.03;4.80;;;;;;;23.25;51.43;101619.38;125112;1095;64362;-83
2021/07/21 12:16:10;;;;;;;11.67;6.67;;;;;;;23.41;50.54;101622.17;124961;1095;64384;-83
2021/07/21 12:18:38;;;;;;;11.67;7.17;;;;;;;23.55;49.91;101622.75;125524;1095;64357;-81
2021/07/21 12:21:09;;;;;;;10.60;5.95;;;;;;;23.74;50.54;101615.28;125022;1096;64300;-83
2021/07/21 12:23:39;;;;;;;8.60;5.03;;;;;;;23.77;48.14;101624.84;125341;1096;64361;-83
2021/07/21 12:26:10;;;;;;;10.03;5.57;;;;;;;23.99;47.39;101627.70;125759;1095;64380;-80
2021/07/21 12:29:04;;;;;;;11.00;5.47;;;;;;;24.23;47.25;101617.59;125381;1096;64365;-81
2021/07/21 12:31:31;;;;;;;11.58;6.85;;;;;;;24.50;46.97;101616.98;125663;1096;64287;-81
2021/07/21 12:34:14;;;;;;;9.80;5.30;;;;;;;24.92;45.14;101620.09;125586;1095;64231;-81
2021/07/21 12:36:49;;;;;;;8.07;5.37;;;;;;;25.42;43.40;101611.05;125484;1096;64474;-80
2021/07/21 12:39:29;;;;;;;12.23;7.20;;;;;;;25.94;42.84;101604.33;125403;1095;64228;-80
2021/07/21 12:42:17;;;;;;;8.73;5.30;;;;;;;26.34;42.49;101607.71;125264;1096;64261;-80